• Join FlightAware (Why Join?)
  • Login
  • US Flag 
05:41AM EDT


 

Airport Tracker/Info


-or-


 

Live Flight TrackerFlight Track Log ✈ N42HN ✈ 31-Aug-2013 ✈ KFLL - MDST / STI

Flight Track Log - Related Links

Times and Time Zones

All times are in EDT time to prevent confusion due to time zone crossing. See the N42HN flight status page for this flight to view local times or setup timezone preferences in your user account.

Time Position Orientation Groundspeed Altitude Reporting Facility
EDT Latitude Longitude Course Direction KTS MPH feet Rate Location/Type
10:53AM 26.0731 -80.1250 88° East 205 236 1,200  Level Miami Center
10:55AM 26.0756 -80.0186 88° East 268 308 4,100 2,040 Climbing Miami Center
10:56AM 26.0792 -79.9403 87° East 278 320 6,000 2,700 Climbing Miami Center
10:57AM 26.0681 -79.8775 101° East 269 310 9,200 2,280 Climbing Miami Center
10:58AM 26.0508 -79.7983 104° East 269 310 10,500 1,320 Climbing Miami Center
10:59AM 26.0319 -79.6892 101° East 302 348 11,900 2,160 Climbing Miami Center
11:00AM 26.0131 -79.5825 101° East 334 384 14,900 2,880 Climbing Miami Center
11:01AM 25.9817 -79.4825 109° East 348 400 17,700 1,980 Climbing Miami Center
11:02AM 25.9164 -79.3931 129° Southeast 348 400 18,900 1,380 Climbing Miami Center
11:03AM 25.8447 -79.2994 130° Southeast 375 432 20,500 1,980 Climbing Miami Center
11:04AM 25.7817 -79.2033 126° Southeast 387 445 22,900 2,280 Climbing Miami Center
11:05AM 25.7119 -79.1144 131° Southeast 387 445 25,100 1,800 Climbing Miami Center
11:06AM 25.6506 -79.0233 127° Southeast 381 438 26,500 1,200 Climbing Miami Center
11:07AM 25.5767 -78.9322 132° Southeast 381 438 27,500 1,080 Climbing Miami Center
11:08AM 25.5092 -78.8367 128° Southeast 388 447 28,700 1,260 Climbing Miami Center
11:09AM 25.4414 -78.7414 128° Southeast 393 452 30,100 1,200 Climbing Miami Center
11:10AM 25.3736 -78.6458 128° Southeast 393 452 31,200 960 Climbing Miami Center
11:11AM 25.3078 -78.5461 126° Southeast 393 452 32,100 900 Climbing Miami Center
11:12AM 25.2336 -78.4508 131° Southeast 403 464 33,000 840 Climbing Miami Center
11:13AM 25.1636 -78.3536 128° Southeast 403 464 33,800 840 Climbing Miami Center
11:14AM 25.0894 -78.2564 130° Southeast 403 464 34,700 840 Climbing Miami Center
11:15AM 25.0192 -78.1592 129° Southeast 403 464 35,500 780 Climbing Miami Center
11:16AM 24.9447 -78.0622 130° Southeast 403 464 36,300 720 Climbing Miami Center
11:17AM 24.8744 -77.9631 128° Southeast 403 464 37,000 300 Climbing Miami Center
11:18AM 24.8019 -77.8661 129° Southeast 403 464 37,000  Level Miami Center
11:19AM 24.7253 -77.7625 129° Southeast 413 475 37,000  Level Miami Center
11:20AM 24.6508 -77.6592 128° Southeast 424 488 37,000 540 Level Miami Center
11:21AM 24.5761 -77.5603 130° Southeast 424 488 38,100 900 Climbing Miami Center
11:22AM 24.5033 -77.4642 130° Southeast 419 482 38,800 600 Climbing Miami Center
11:23AM 24.4306 -77.3656 129° Southeast 419 482 39,300 420 Climbing Miami Center
11:24AM 24.3597 -77.2717 130° Southeast 409 471 39,700 300 Climbing Miami Center
11:25AM 24.2867 -77.1758 130° Southeast 409 471 40,000 300 Climbing Miami Center
11:26AM 24.2158 -77.0775 128° Southeast 409 471 40,400 360 Climbing Miami Center
11:27AM 24.1428 -76.9842 131° Southeast 409 471 40,800 300 Climbing Miami Center
11:28AM 24.0739 -76.8908 129° Southeast 402 463 41,000 60 Climbing Miami Center
11:29AM 23.9944 -76.7883 130° Southeast 397 457 41,000  Level Miami Center
11:30AM 23.9233 -76.6931 129° Southeast 397 457 41,000  Level Miami Center
11:31AM 23.8522 -76.5975 129° Southeast 402 463 41,000  Level Miami Center
11:32AM 23.7789 -76.5000 129° Southeast 402 463 41,000  Level Miami Center
11:33AM 23.7053 -76.4006 129° Southeast 407 468 41,000  Level Miami Center
11:34AM 23.6297 -76.3056 131° Southeast 412 474 41,000 -180 Level Miami Center
11:35AM 23.5583 -76.2083 129° Southeast 412 474 40,700 -1,020 Descending Miami Center
11:36AM 23.4806 -76.1114 131° Southeast 412 474 39,000 -900 Descending Miami Center
11:37AM 23.4006 -76.0122 131° Southeast 418 481 39,000  Level Miami Center
11:38AM 23.3292 -75.9222 131° Southeast 436 502 39,000  Level Miami Center
11:39AM 23.2511 -75.8186 129° Southeast 441 507 39,000  Level Miami Center
11:40AM 23.1750 -75.7153 129° Southeast 441 507 39,000  Level Miami Center
11:41AM 23.1011 -75.6167 129° Southeast 435 501 39,000  Level Miami Center
11:42AM 23.0231 -75.5158 130° Southeast 425 489 39,000  Level Miami Center
11:43AM 22.9469 -75.4175 130° Southeast 425 489 39,000  Level Miami Center
11:44AM 22.8708 -75.3214 131° Southeast 425 489 39,000  Level Miami Center
11:45AM 22.7944 -75.2231 130° Southeast 430 495 39,000  Level Miami Center
11:46AM 22.7161 -75.1206 130° Southeast 430 495 39,000  Level Miami Center
11:47AM 22.6375 -75.0225 131° Southeast 430 495 39,000  Level Miami Center
11:48AM 22.5589 -74.9200 130° Southeast 430 495 39,000  Level Miami Center
11:49AM 22.4803 -74.8181 130° Southeast 430 495 39,000  Level Miami Center
11:50AM 22.4017 -74.7181 130° Southeast 430 495 39,000  Level Miami Center
11:51AM 22.3208 -74.6228 133° Southeast 430 495 39,000  Level Miami Center
11:52AM 22.2400 -74.5189 130° Southeast 435 501 39,000  Level Miami Center
11:53AM 22.1589 -74.4172 131° Southeast 441 507 39,000  Level Miami Center
11:54AM 22.0781 -74.3156 131° Southeast 441 507 39,000  Level Miami Center
11:55AM 21.9969 -74.2142 131° Southeast 446 513 39,000  Level Miami Center
11:56AM 21.9114 -74.1039 130° Southeast 446 513 39,000  Level Miami Center
11:57AM 21.8322 -73.9983 129° Southeast 451 519 39,000 -60 Level Miami Center
11:58AM 21.7531 -73.8972 130° Southeast 451 519 38,900 -660 Descending Miami Center
11:59AM 21.6717 -73.7961 131° Southeast 451 519 37,700 -1,440 Descending Miami Center
12:00PM 21.5903 -73.6953 131° Southeast 451 519 36,100 -1,260 Descending Miami Center
12:01PM 21.5067 -73.5925 131° Southeast 451 519 35,200 -840 Descending Miami Center
12:02PM 21.4294 -73.4942 130° Southeast 451 519 34,500 -840 Descending Miami Center
12:03PM 21.3458 -73.3936 132° Southeast 446 513 33,600 -900 Descending Miami Center
12:04PM 21.2642 -73.2933 131° Southeast 451 519 32,800 -900 Descending Miami Center
12:05PM 21.1825 -73.1931 131° Southeast 451 519 31,900 -960 Descending Miami Center
12:06PM 21.0967 -73.0911 132° Southeast 456 525 30,900 -900 Descending Miami Center
12:07PM 21.0189 -72.9886 129° Southeast 456 525 30,100 -960 Descending Miami Center
12:08PM 20.9350 -72.8867 131° Southeast 451 519 29,000 -1,080 Descending Miami Center
12:09PM 20.8508 -72.7847 131° Southeast 451 519 28,000 -960 Descending Miami Center
12:10PM 20.7667 -72.6786 130° Southeast 456 525 27,100 -960 Descending Miami Center
12:11PM 20.6825 -72.5747 131° Southeast 456 525 26,100 -900 Descending Miami Center
12:12PM 20.5983 -72.4733 132° Southeast 456 525 25,300 -600 Descending Miami Center
12:13PM 20.5161 -72.3719 131° Southeast 451 519 25,000 -180 Descending Miami Center
12:14PM 20.4342 -72.2728 131° Southeast 451 519 25,000  Level Miami Center
12:16PM 20.3608 -72.0963 114° Southeast  Level FlightAware Approximate
12:23PM 19.9831 -71.4061 127° Southeast  Level FlightAware Approximate
12:24PM 19.9179 -71.3149 127° Southeast  Level FlightAware Approximate
12:25PM 19.8540 -71.2225 125° Southeast  Level FlightAware Approximate
12:26PM 19.7916 -71.1291 125° Southeast  Level FlightAware Approximate
12:27PM 19.7228 -71.0409 130° Southeast  Level FlightAware Approximate
12:28PM 19.6530 -70.9537 130° Southeast  Level FlightAware Approximate
12:29PM 19.5904 -70.8605 125° Southeast  Level FlightAware Approximate
12:30PM 19.5264 -70.7685 129° Southeast  Level FlightAware Approximate
12:31PM 19.4593 -70.6790 128° Southeast  Level FlightAware Approximate
12:32PM 19.4061 -70.6047 North  Level Estimated
12:33PM 19.4061 -70.6047 North  Level Estimated
12:34PM 19.4061 -70.6047 North  Level Estimated
12:35PM 19.4061 -70.6047 North  Level Estimated
12:36PM 19.4061 -70.6047 North  Level Estimated
12:37PM 19.4061 -70.6047 North  Level Estimated
12:38PM 19.4061 -70.6047 North  Level Estimated
12:39PM 19.4061 -70.6047 North  Level Estimated
12:40PM 19.4061 -70.6047 North  Level Estimated
12:41PM 19.4061 -70.6047 North  Level Estimated
12:42PM 19.4061 -70.6047 North  Level Estimated
12:43PM 19.4061 -70.6047 North  Level Estimated
12:44PM 19.4061 -70.6047 North  Level Estimated
12:45PM 19.4061 -70.6047 North  Level Estimated
12:46PM 19.4061 -70.6047 North  Level Estimated
12:47PM 19.4061 -70.6047 North  Level Estimated
12:48PM 19.4061 -70.6047 North  Level Estimated